createdAt,value
2022-10-08T00:11:58.776Z,10.20
2022-10-08T00:17:03.548Z,10.30
2022-10-08T00:22:06.950Z,10.40
2022-10-08T00:27:10.076Z,10.40
2022-10-08T00:32:11.765Z,10.50
2022-10-08T00:37:14.148Z,10.50
2022-10-08T00:42:17.674Z,10.60
2022-10-08T00:47:26.565Z,10.70
2022-10-08T00:52:32.493Z,10.70
2022-10-08T00:57:37.052Z,10.70
2022-10-08T01:02:38.916Z,10.80
2022-10-08T01:07:48.120Z,10.80
2022-10-08T01:13:13.052Z,10.80
2022-10-08T03:04:00.091Z,9.80
2022-10-08T03:09:02.759Z,9.90
2022-10-08T03:14:07.890Z,9.80
2022-10-08T03:19:13.407Z,9.60
2022-10-08T03:24:16.111Z,9.50
2022-10-08T03:29:17.836Z,9.30
2022-10-08T03:34:20.976Z,9.20
2022-10-08T03:39:22.772Z,9.10
2022-10-08T03:44:24.653Z,9.00
2022-10-08T03:49:27.801Z,8.90
2022-10-08T03:54:29.469Z,9.10
2022-10-08T03:59:31.211Z,9.20
2022-10-08T04:04:34.361Z,9.30
2022-10-08T04:09:36.055Z,9.30
2022-10-08T04:14:37.741Z,9.30
2022-10-08T04:19:48.665Z,9.30
2022-10-08T04:24:50.452Z,9.30
2022-10-08T04:29:52.348Z,9.30
2022-10-08T04:34:55.420Z,9.20
2022-10-08T04:39:57.104Z,9.10
2022-10-08T04:44:58.920Z,9.00
2022-10-08T04:50:02.054Z,8.90
2022-10-08T04:55:04.150Z,8.90
2022-10-08T05:00:18.143Z,8.80
2022-10-08T05:05:22.041Z,8.60
2022-10-08T05:10:24.018Z,8.50
2022-10-08T05:15:28.821Z,8.50
2022-10-08T05:20:32.043Z,8.30
2022-10-08T05:25:34.758Z,8.20
2022-10-08T05:30:36.497Z,8.20
2022-10-08T05:35:39.656Z,8.10
2022-10-08T05:40:41.436Z,8.00
2022-10-08T05:45:49.993Z,7.90
2022-10-08T05:50:53.134Z,7.80
2022-10-08T05:55:59.968Z,7.80
2022-10-08T06:01:04.426Z,7.90
2022-10-08T06:06:09.991Z,7.80
2022-10-08T06:11:11.745Z,7.60
2022-10-08T06:16:13.612Z,7.50
2022-10-08T06:21:18.535Z,7.30
2022-10-08T06:26:36.429Z,7.20
2022-10-08T06:31:40.889Z,7.10
2022-10-08T06:36:46.536Z,7.20
2022-10-08T06:41:48.420Z,7.40
2022-10-08T06:46:50.300Z,7.40
2022-10-08T06:51:53.512Z,7.50
2022-10-08T06:56:55.220Z,7.50
2022-10-08T07:01:56.951Z,7.60
2022-10-08T07:07:02.551Z,7.80
2022-10-08T07:12:11.462Z,8.00
2022-10-08T07:17:13.188Z,8.10
2022-10-08T07:22:16.351Z,8.40
2022-10-08T07:27:20.031Z,8.70
2022-10-08T07:32:21.709Z,9.10
2022-10-08T07:37:24.847Z,9.40
2022-10-08T07:42:26.632Z,9.60
2022-10-08T07:47:28.439Z,9.80
2022-10-08T07:52:31.556Z,9.90
2022-10-08T07:57:33.433Z,10.10
2022-10-08T08:02:35.650Z,10.20
2022-10-08T08:07:38.922Z,10.40
2022-10-08T08:12:40.864Z,10.60
2022-10-08T08:17:47.206Z,10.80
2022-10-08T08:22:50.734Z,11.10
2022-10-08T08:27:52.457Z,11.30
2022-10-08T08:32:54.156Z,11.60
2022-10-08T08:37:57.276Z,12.20
2022-10-08T08:42:59.067Z,12.90
2022-10-08T08:48:13.313Z,13.00
2022-10-08T08:53:36.763Z,13.10
2022-10-08T08:58:45.552Z,13.20
2022-10-08T09:04:01.831Z,13.30
2022-10-08T09:09:17.460Z,13.30
2022-10-08T09:14:33.260Z,13.20
2022-10-08T09:19:44.933Z,13.20
2022-10-08T09:24:56.931Z,13.40
2022-10-08T09:29:58.923Z,13.70
2022-10-08T09:35:09.041Z,13.70
2022-10-08T09:40:22.535Z,13.80
2022-10-08T09:45:33.344Z,13.80
2022-10-08T09:57:14.825Z,14.00
2022-10-08T10:09:07.337Z,14.20
2022-10-08T10:14:23.688Z,14.40
2022-10-08T10:25:50.529Z,14.50
2022-10-08T10:31:32.201Z,14.70
2022-10-08T10:36:44.927Z,15.00
2022-10-08T10:41:50.941Z,15.10
2022-10-08T10:47:08.862Z,15.10
2022-10-08T10:52:42.091Z,15.10
2022-10-08T11:03:27.083Z,15.10
2022-10-08T11:08:39.159Z,15.20
2022-10-08T11:13:51.448Z,15.30
2022-10-08T11:19:12.367Z,15.30
2022-10-08T12:14:54.419Z,16.30
2022-10-08T12:20:18.425Z,15.70
2022-10-08T12:25:42.124Z,15.30
2022-10-08T12:30:50.042Z,14.90
2022-10-08T12:35:58.853Z,14.70
2022-10-08T12:41:16.100Z,14.80
2022-10-08T12:46:35.794Z,15.20
2022-10-08T12:57:09.844Z,15.30
2022-10-08T13:03:21.623Z,15.10
2022-10-08T13:08:43.265Z,15.10
2022-10-08T13:14:05.159Z,16.10
2022-10-08T13:19:17.364Z,16.70
2022-10-08T13:24:40.936Z,16.60
2022-10-08T13:35:19.939Z,16.50
2022-10-08T14:19:27.985Z,16.20
2022-10-08T14:25:04.453Z,16.10
2022-10-08T14:30:29.020Z,15.70
2022-10-08T14:36:26.163Z,15.50
2022-10-08T14:41:52.591Z,15.40
2022-10-08T14:47:18.019Z,15.30
2022-10-08T14:52:55.147Z,15.20
2022-10-08T14:58:12.618Z,15.10
2022-10-08T15:49:32.065Z,13.80
2022-10-08T15:54:47.577Z,13.60
2022-10-08T16:00:38.099Z,13.60
2022-10-08T16:05:42.795Z,13.40
2022-10-08T16:10:58.069Z,13.20
2022-10-08T16:16:01.435Z,12.90
2022-10-08T16:21:41.070Z,12.70
2022-10-08T16:26:44.029Z,12.40
2022-10-08T16:31:57.144Z,12.00
2022-10-08T16:37:08.370Z,11.80
2022-10-08T16:42:19.164Z,11.60
2022-10-08T16:47:24.963Z,11.40
2022-10-08T16:52:38.424Z,11.20
2022-10-08T16:57:42.044Z,10.90
2022-10-08T17:02:45.553Z,10.70
2022-10-08T17:07:47.572Z,10.50
2022-10-08T17:12:49.668Z,10.30
2022-10-08T17:17:55.518Z,10.10
2022-10-08T17:22:57.954Z,9.80
2022-10-08T17:28:06.435Z,9.70
2022-10-08T17:33:38.513Z,9.60
2022-10-08T17:44:13.378Z,9.30
2022-10-08T17:49:20.805Z,9.10
2022-10-08T18:43:57.734Z,8.00
2022-10-08T18:49:00.228Z,7.80
2022-10-08T18:54:04.688Z,7.60
2022-10-08T18:59:11.530Z,7.50
2022-10-08T19:04:21.115Z,7.40
2022-10-08T19:09:30.307Z,7.30
2022-10-08T19:14:45.623Z,7.40
2022-10-08T19:19:47.674Z,7.40
2022-10-08T19:24:55.520Z,7.20
2022-10-08T19:29:59.667Z,7.10
2022-10-08T19:40:21.708Z,6.60
2022-10-08T19:46:04.615Z,6.50
2022-10-08T19:51:09.017Z,6.40
2022-10-08T20:23:05.492Z,6.10
2022-10-08T20:28:07.446Z,6.00
2022-10-08T20:33:10.912Z,6.00
2022-10-08T20:38:17.075Z,5.90
2022-10-08T20:43:18.820Z,5.60
2022-10-08T20:48:28.535Z,5.60
2022-10-08T20:53:32.840Z,5.40
2022-10-08T20:58:35.756Z,5.40
2022-10-08T21:03:45.692Z,5.40
2022-10-08T21:08:50.859Z,5.40
2022-10-08T21:13:53.034Z,5.20
